sensor_id;sensor_type;location;lat;lon;timestamp;P1;durP1;ratioP1;P2;durP2;ratioP2
41101;SDS011;26845;50.190;19.178;2023-02-28T00:00:49;10.40;;;5.10;;
41101;SDS011;26845;50.190;19.178;2023-02-28T00:03:16;9.40;;;4.90;;
41101;SDS011;26845;50.190;19.178;2023-02-28T00:05:42;10.60;;;5.50;;
41101;SDS011;26845;50.190;19.178;2023-02-28T00:08:08;11.70;;;5.60;;
41101;SDS011;26845;50.190;19.178;2023-02-28T00:10:34;10.10;;;5.20;;
41101;SDS011;26845;50.190;19.178;2023-02-28T00:13:04;11.10;;;5.20;;
41101;SDS011;26845;50.190;19.178;2023-02-28T00:17:57;11.10;;;5.90;;
41101;SDS011;26845;50.190;19.178;2023-02-28T00:20:26;10.80;;;5.60;;
41101;SDS011;26845;50.190;19.178;2023-02-28T00:22:53;8.40;;;5.20;;
41101;SDS011;26845;50.190;19.178;2023-02-28T00:25:21;9.00;;;4.40;;
41101;SDS011;26845;50.190;19.178;2023-02-28T00:27:48;11.60;;;4.70;;
41101;SDS011;26845;50.190;19.178;2023-02-28T00:30:16;10.70;;;5.10;;
41101;SDS011;26845;50.190;19.178;2023-02-28T00:32:43;7.80;;;4.00;;
41101;SDS011;26845;50.190;19.178;2023-02-28T00:35:09;9.10;;;4.50;;
41101;SDS011;26845;50.190;19.178;2023-02-28T00:37:35;8.50;;;4.50;;
41101;SDS011;26845;50.190;19.178;2023-02-28T00:40:01;10.60;;;5.40;;
41101;SDS011;26845;50.190;19.178;2023-02-28T00:42:34;8.30;;;4.90;;
41101;SDS011;26845;50.190;19.178;2023-02-28T00:45:00;10.10;;;4.50;;
41101;SDS011;26845;50.190;19.178;2023-02-28T00:47:26;11.50;;;5.40;;
41101;SDS011;26845;50.190;19.178;2023-02-28T00:49:53;8.50;;;4.50;;
41101;SDS011;26845;50.190;19.178;2023-02-28T00:52:19;10.10;;;5.20;;
41101;SDS011;26845;50.190;19.178;2023-02-28T00:54:45;10.20;;;5.30;;
41101;SDS011;26845;50.190;19.178;2023-02-28T00:57:13;12.90;;;5.20;;
41101;SDS011;26845;50.190;19.178;2023-02-28T00:59:38;8.80;;;5.30;;
41101;SDS011;26845;50.190;19.178;2023-02-28T01:02:05;8.90;;;4.70;;
41101;SDS011;26845;50.190;19.178;2023-02-28T01:04:31;10.90;;;4.70;;
41101;SDS011;26845;50.190;19.178;2023-02-28T01:06:57;11.20;;;5.10;;
41101;SDS011;26845;50.190;19.178;2023-02-28T01:09:23;13.00;;;5.20;;
41101;SDS011;26845;50.190;19.178;2023-02-28T01:11:49;11.10;;;5.10;;
41101;SDS011;26845;50.190;19.178;2023-02-28T01:14:16;13.80;;;5.60;;
41101;SDS011;26845;50.190;19.178;2023-02-28T01:16:44;9.90;;;5.30;;
41101;SDS011;26845;50.190;19.178;2023-02-28T01:19:09;13.10;;;5.80;;
41101;SDS011;26845;50.190;19.178;2023-02-28T01:21:35;11.10;;;5.10;;
41101;SDS011;26845;50.190;19.178;2023-02-28T01:24:03;12.60;;;4.80;;
41101;SDS011;26845;50.190;19.178;2023-02-28T01:26:30;7.10;;;4.40;;
41101;SDS011;26845;50.190;19.178;2023-02-28T01:28:56;9.00;;;4.70;;
41101;SDS011;26845;50.190;19.178;2023-02-28T01:31:22;10.10;;;4.60;;
41101;SDS011;26845;50.190;19.178;2023-02-28T01:33:48;10.80;;;5.00;;
41101;SDS011;26845;50.190;19.178;2023-02-28T01:36:21;9.80;;;5.30;;
41101;SDS011;26845;50.190;19.178;2023-02-28T01:38:49;10.60;;;5.80;;
41101;SDS011;26845;50.190;19.178;2023-02-28T01:41:22;9.20;;;5.40;;
41101;SDS011;26845;50.190;19.178;2023-02-28T01:46:21;10.80;;;5.60;;
41101;SDS011;26845;50.190;19.178;2023-02-28T01:48:49;12.90;;;6.30;;
41101;SDS011;26845;50.190;19.178;2023-02-28T01:51:22;13.70;;;6.80;;
41101;SDS011;26845;50.190;19.178;2023-02-28T01:54:15;14.70;;;6.90;;
41101;SDS011;26845;50.190;19.178;2023-02-28T01:56:47;13.20;;;6.20;;
41101;SDS011;26845;50.190;19.178;2023-02-28T01:59:30;10.30;;;6.20;;
41101;SDS011;26845;50.190;19.178;2023-02-28T02:02:02;11.90;;;7.00;;
41101;SDS011;26845;50.190;19.178;2023-02-28T02:04:32;13.80;;;7.00;;
41101;SDS011;26845;50.190;19.178;2023-02-28T02:07:05;9.20;;;6.40;;
41101;SDS011;26845;50.190;19.178;2023-02-28T02:09:32;11.30;;;6.40;;
41101;SDS011;26845;50.190;19.178;2023-02-28T02:11:59;11.60;;;5.90;;
41101;SDS011;26845;50.190;19.178;2023-02-28T02:14:48;10.90;;;5.20;;
41101;SDS011;26845;50.190;19.178;2023-02-28T02:17:39;12.80;;;5.90;;
41101;SDS011;26845;50.190;19.178;2023-02-28T02:25:35;12.00;;;5.80;;
41101;SDS011;26845;50.190;19.178;2023-02-28T02:28:30;17.80;;;9.40;;
41101;SDS011;26845;50.190;19.178;2023-02-28T02:31:24;15.20;;;5.80;;
41101;SDS011;26845;50.190;19.178;2023-02-28T02:36:48;16.60;;;8.40;;
41101;SDS011;26845;50.190;19.178;2023-02-28T02:39:36;12.70;;;5.80;;
41101;SDS011;26845;50.190;19.178;2023-02-28T02:42:31;12.90;;;6.30;;
41101;SDS011;26845;50.190;19.178;2023-02-28T02:45:01;12.90;;;6.30;;
41101;SDS011;26845;50.190;19.178;2023-02-28T02:47:34;11.80;;;6.20;;
41101;SDS011;26845;50.190;19.178;2023-02-28T02:50:03;11.60;;;6.30;;
41101;SDS011;26845;50.190;19.178;2023-02-28T02:52:38;13.80;;;5.80;;
41101;SDS011;26845;50.190;19.178;2023-02-28T02:55:08;11.90;;;6.60;;
41101;SDS011;26845;50.190;19.178;2023-02-28T02:57:42;13.50;;;6.40;;
41101;SDS011;26845;50.190;19.178;2023-02-28T03:00:09;14.70;;;6.00;;
41101;SDS011;26845;50.190;19.178;2023-02-28T03:02:36;11.80;;;6.70;;
41101;SDS011;26845;50.190;19.178;2023-02-28T03:06:04;13.10;;;6.40;;
41101;SDS011;26845;50.190;19.178;2023-02-28T03:08:15;14.70;;;6.20;;
41101;SDS011;26845;50.190;19.178;2023-02-28T03:10:42;14.60;;;6.80;;
41101;SDS011;26845;50.190;19.178;2023-02-28T03:13:13;13.90;;;6.70;;
41101;SDS011;26845;50.190;19.178;2023-02-28T03:16:03;17.10;;;7.30;;
41101;SDS011;26845;50.190;19.178;2023-02-28T03:18:45;16.50;;;7.60;;
41101;SDS011;26845;50.190;19.178;2023-02-28T03:21:25;14.40;;;6.50;;
41101;SDS011;26845;50.190;19.178;2023-02-28T03:24:06;14.20;;;6.80;;
41101;SDS011;26845;50.190;19.178;2023-02-28T03:26:39;14.60;;;7.20;;
41101;SDS011;26845;50.190;19.178;2023-02-28T03:29:28;17.20;;;7.00;;
41101;SDS011;26845;50.190;19.178;2023-02-28T03:34:55;15.60;;;7.70;;
41101;SDS011;26845;50.190;19.178;2023-02-28T03:37:28;13.50;;;6.00;;
41101;SDS011;26845;50.190;19.178;2023-02-28T03:39:58;14.70;;;6.60;;
41101;SDS011;26845;50.190;19.178;2023-02-28T03:42:29;15.60;;;7.00;;
41101;SDS011;26845;50.190;19.178;2023-02-28T03:44:57;16.30;;;8.00;;
41101;SDS011;26845;50.190;19.178;2023-02-28T03:47:33;17.60;;;7.50;;
41101;SDS011;26845;50.190;19.178;2023-02-28T03:50:17;14.70;;;7.00;;
41101;SDS011;26845;50.190;19.178;2023-02-28T03:52:53;16.90;;;6.80;;
41101;SDS011;26845;50.190;19.178;2023-02-28T03:55:25;15.90;;;6.60;;
41101;SDS011;26845;50.190;19.178;2023-02-28T03:57:58;16.80;;;7.50;;
41101;SDS011;26845;50.190;19.178;2023-02-28T04:00:38;15.50;;;7.20;;
41101;SDS011;26845;50.190;19.178;2023-02-28T04:03:08;15.30;;;7.50;;
41101;SDS011;26845;50.190;19.178;2023-02-28T04:05:43;16.20;;;7.40;;
41101;SDS011;26845;50.190;19.178;2023-02-28T04:08:13;16.50;;;8.10;;
41101;SDS011;26845;50.190;19.178;2023-02-28T04:10:39;14.30;;;7.10;;
41101;SDS011;26845;50.190;19.178;2023-02-28T04:13:08;18.30;;;8.00;;
41101;SDS011;26845;50.190;19.178;2023-02-28T04:15:34;18.90;;;8.00;;
41101;SDS011;26845;50.190;19.178;2023-02-28T04:18:00;19.20;;;7.40;;
41101;SDS011;26845;50.190;19.178;2023-02-28T04:20:26;16.20;;;7.70;;
41101;SDS011;26845;50.190;19.178;2023-02-28T04:22:53;16.80;;;8.60;;
41101;SDS011;26845;50.190;19.178;2023-02-28T04:25:22;19.40;;;8.60;;
41101;SDS011;26845;50.190;19.178;2023-02-28T04:27:47;20.40;;;8.90;;
41101;SDS011;26845;50.190;19.178;2023-02-28T04:30:13;15.10;;;7.90;;
41101;SDS011;26845;50.190;19.178;2023-02-28T04:32:39;17.10;;;8.30;;
41101;SDS011;26845;50.190;19.178;2023-02-28T04:35:06;16.30;;;7.60;;
41101;SDS011;26845;50.190;19.178;2023-02-28T04:37:32;18.60;;;8.60;;
41101;SDS011;26845;50.190;19.178;2023-02-28T04:40:00;19.70;;;7.60;;
41101;SDS011;26845;50.190;19.178;2023-02-28T04:42:27;16.30;;;7.90;;
41101;SDS011;26845;50.190;19.178;2023-02-28T04:44:53;20.40;;;8.20;;
41101;SDS011;26845;50.190;19.178;2023-02-28T04:47:19;19.60;;;8.20;;
41101;SDS011;26845;50.190;19.178;2023-02-28T04:49:46;15.50;;;7.50;;
41101;SDS011;26845;50.190;19.178;2023-02-28T04:52:11;17.30;;;9.00;;
41101;SDS011;26845;50.190;19.178;2023-02-28T04:54:38;20.40;;;8.30;;
41101;SDS011;26845;50.190;19.178;2023-02-28T04:57:04;15.30;;;7.20;;
41101;SDS011;26845;50.190;19.178;2023-02-28T04:59:30;17.50;;;7.20;;
41101;SDS011;26845;50.190;19.178;2023-02-28T05:01:56;16.00;;;7.50;;
41101;SDS011;26845;50.190;19.178;2023-02-28T05:04:22;13.90;;;7.40;;
41101;SDS011;26845;50.190;19.178;2023-02-28T05:06:48;16.70;;;7.70;;
41101;SDS011;26845;50.190;19.178;2023-02-28T05:09:15;20.60;;;8.10;;
41101;SDS011;26845;50.190;19.178;2023-02-28T05:11:41;17.50;;;7.90;;
41101;SDS011;26845;50.190;19.178;2023-02-28T05:14:12;18.90;;;9.20;;
41101;SDS011;26845;50.190;19.178;2023-02-28T05:16:39;26.90;;;10.30;;
41101;SDS011;26845;50.190;19.178;2023-02-28T05:19:05;24.80;;;12.40;;
41101;SDS011;26845;50.190;19.178;2023-02-28T05:23:58;20.20;;;9.30;;
41101;SDS011;26845;50.190;19.178;2023-02-28T05:26:48;17.50;;;8.20;;
41101;SDS011;26845;50.190;19.178;2023-02-28T05:29:16;14.20;;;7.20;;
41101;SDS011;26845;50.190;19.178;2023-02-28T05:31:42;19.00;;;8.80;;
41101;SDS011;26845;50.190;19.178;2023-02-28T05:34:08;19.80;;;8.70;;
41101;SDS011;26845;50.190;19.178;2023-02-28T05:36:37;18.50;;;8.60;;
41101;SDS011;26845;50.190;19.178;2023-02-28T05:39:05;19.90;;;10.20;;
41101;SDS011;26845;50.190;19.178;2023-02-28T05:41:32;19.70;;;9.10;;
41101;SDS011;26845;50.190;19.178;2023-02-28T05:43:58;20.50;;;8.90;;
41101;SDS011;26845;50.190;19.178;2023-02-28T05:46:24;20.40;;;10.30;;
41101;SDS011;26845;50.190;19.178;2023-02-28T05:48:50;21.00;;;9.80;;
41101;SDS011;26845;50.190;19.178;2023-02-28T05:51:17;21.70;;;11.10;;
41101;SDS011;26845;50.190;19.178;2023-02-28T05:53:44;21.20;;;9.50;;
41101;SDS011;26845;50.190;19.178;2023-02-28T05:56:10;20.80;;;9.70;;
41101;SDS011;26845;50.190;19.178;2023-02-28T05:58:37;19.90;;;9.20;;
41101;SDS011;26845;50.190;19.178;2023-02-28T06:01:21;20.70;;;11.30;;
41101;SDS011;26845;50.190;19.178;2023-02-28T06:03:49;27.70;;;12.40;;
41101;SDS011;26845;50.190;19.178;2023-02-28T06:06:15;24.60;;;12.60;;
41101;SDS011;26845;50.190;19.178;2023-02-28T06:08:41;24.50;;;13.30;;
41101;SDS011;26845;50.190;19.178;2023-02-28T06:11:08;31.30;;;13.20;;
41101;SDS011;26845;50.190;19.178;2023-02-28T06:13:34;24.50;;;13.00;;
41101;SDS011;26845;50.190;19.178;2023-02-28T06:16:01;27.10;;;11.80;;
41101;SDS011;26845;50.190;19.178;2023-02-28T06:18:29;24.70;;;9.20;;
41101;SDS011;26845;50.190;19.178;2023-02-28T06:20:54;18.70;;;9.50;;
41101;SDS011;26845;50.190;19.178;2023-02-28T06:23:23;23.20;;;10.40;;
41101;SDS011;26845;50.190;19.178;2023-02-28T06:25:51;22.50;;;10.50;;
41101;SDS011;26845;50.190;19.178;2023-02-28T06:28:18;25.00;;;14.20;;
41101;SDS011;26845;50.190;19.178;2023-02-28T06:30:44;34.90;;;17.20;;
41101;SDS011;26845;50.190;19.178;2023-02-28T06:33:10;26.90;;;15.00;;
41101;SDS011;26845;50.190;19.178;2023-02-28T06:35:37;28.10;;;14.40;;
41101;SDS011;26845;50.190;19.178;2023-02-28T06:38:03;37.30;;;17.60;;
41101;SDS011;26845;50.190;19.178;2023-02-28T06:40:29;35.00;;;16.70;;
41101;SDS011;26845;50.190;19.178;2023-02-28T06:42:59;36.00;;;15.90;;
41101;SDS011;26845;50.190;19.178;2023-02-28T06:45:26;29.60;;;14.10;;
41101;SDS011;26845;50.190;19.178;2023-02-28T06:47:52;29.20;;;15.20;;
41101;SDS011;26845;50.190;19.178;2023-02-28T06:50:19;32.80;;;14.80;;
41101;SDS011;26845;50.190;19.178;2023-02-28T06:52:46;32.30;;;16.00;;
41101;SDS011;26845;50.190;19.178;2023-02-28T06:55:12;31.00;;;19.10;;
41101;SDS011;26845;50.190;19.178;2023-02-28T06:57:38;30.80;;;18.00;;
41101;SDS011;26845;50.190;19.178;2023-02-28T07:00:05;28.30;;;14.30;;
41101;SDS011;26845;50.190;19.178;2023-02-28T07:02:34;28.40;;;15.20;;
41101;SDS011;26845;50.190;19.178;2023-02-28T07:05:00;30.70;;;14.30;;
41101;SDS011;26845;50.190;19.178;2023-02-28T07:07:28;23.10;;;13.50;;
41101;SDS011;26845;50.190;19.178;2023-02-28T07:09:54;23.40;;;12.70;;
41101;SDS011;26845;50.190;19.178;2023-02-28T07:12:20;23.20;;;12.20;;
41101;SDS011;26845;50.190;19.178;2023-02-28T07:14:46;28.00;;;13.60;;
41101;SDS011;26845;50.190;19.178;2023-02-28T07:17:12;27.60;;;12.60;;
41101;SDS011;26845;50.190;19.178;2023-02-28T07:19:39;27.20;;;13.40;;
41101;SDS011;26845;50.190;19.178;2023-02-28T07:22:05;19.10;;;10.30;;
41101;SDS011;26845;50.190;19.178;2023-02-28T07:24:31;31.60;;;13.60;;
41101;SDS011;26845;50.190;19.178;2023-02-28T07:26:58;26.40;;;13.00;;
41101;SDS011;26845;50.190;19.178;2023-02-28T07:29:24;27.00;;;13.80;;
41101;SDS011;26845;50.190;19.178;2023-02-28T07:31:52;28.30;;;13.50;;
41101;SDS011;26845;50.190;19.178;2023-02-28T07:34:18;24.90;;;12.40;;
41101;SDS011;26845;50.190;19.178;2023-02-28T07:36:45;28.20;;;13.00;;
41101;SDS011;26845;50.190;19.178;2023-02-28T07:39:11;23.60;;;13.80;;
41101;SDS011;26845;50.190;19.178;2023-02-28T07:41:37;22.90;;;12.40;;
41101;SDS011;26845;50.190;19.178;2023-02-28T07:44:11;25.30;;;13.70;;
41101;SDS011;26845;50.190;19.178;2023-02-28T07:46:37;23.60;;;12.30;;
41101;SDS011;26845;50.190;19.178;2023-02-28T07:49:03;25.50;;;12.50;;
41101;SDS011;26845;50.190;19.178;2023-02-28T07:51:31;23.20;;;11.00;;
41101;SDS011;26845;50.190;19.178;2023-02-28T07:53:58;20.60;;;11.20;;
41101;SDS011;26845;50.190;19.178;2023-02-28T07:56:25;24.20;;;12.30;;
41101;SDS011;26845;50.190;19.178;2023-02-28T07:58:51;21.00;;;11.50;;
41101;SDS011;26845;50.190;19.178;2023-02-28T08:01:17;27.10;;;12.80;;
41101;SDS011;26845;50.190;19.178;2023-02-28T08:03:44;26.80;;;12.40;;
41101;SDS011;26845;50.190;19.178;2023-02-28T08:06:15;26.20;;;12.80;;
41101;SDS011;26845;50.190;19.178;2023-02-28T08:08:43;29.70;;;12.80;;
41101;SDS011;26845;50.190;19.178;2023-02-28T08:11:09;23.20;;;13.00;;
41101;SDS011;26845;50.190;19.178;2023-02-28T08:13:35;25.60;;;12.90;;
41101;SDS011;26845;50.190;19.178;2023-02-28T08:16:02;29.00;;;15.30;;
41101;SDS011;26845;50.190;19.178;2023-02-28T08:18:28;33.80;;;15.60;;
41101;SDS011;26845;50.190;19.178;2023-02-28T08:20:54;28.50;;;15.00;;
41101;SDS011;26845;50.190;19.178;2023-02-28T08:23:20;31.70;;;19.10;;
41101;SDS011;26845;50.190;19.178;2023-02-28T08:25:52;26.50;;;16.30;;
41101;SDS011;26845;50.190;19.178;2023-02-28T08:28:19;53.80;;;33.00;;
41101;SDS011;26845;50.190;19.178;2023-02-28T08:30:45;28.30;;;17.90;;
41101;SDS011;26845;50.190;19.178;2023-02-28T08:33:12;27.90;;;17.00;;
41101;SDS011;26845;50.190;19.178;2023-02-28T08:35:39;27.10;;;15.30;;
41101;SDS011;26845;50.190;19.178;2023-02-28T08:38:05;31.80;;;18.40;;
41101;SDS011;26845;50.190;19.178;2023-02-28T08:40:31;24.30;;;12.40;;
41101;SDS011;26845;50.190;19.178;2023-02-28T08:42:57;22.80;;;12.90;;
41101;SDS011;26845;50.190;19.178;2023-02-28T08:45:25;23.40;;;13.10;;
41101;SDS011;26845;50.190;19.178;2023-02-28T08:47:50;24.20;;;12.90;;
41101;SDS011;26845;50.190;19.178;2023-02-28T08:50:17;27.40;;;14.00;;
41101;SDS011;26845;50.190;19.178;2023-02-28T08:52:43;21.70;;;12.00;;
41101;SDS011;26845;50.190;19.178;2023-02-28T08:55:10;21.90;;;11.90;;
41101;SDS011;26845;50.190;19.178;2023-02-28T08:57:35;22.70;;;13.60;;
41101;SDS011;26845;50.190;19.178;2023-02-28T09:00:02;22.40;;;12.20;;
41101;SDS011;26845;50.190;19.178;2023-02-28T09:02:29;20.30;;;12.20;;
41101;SDS011;26845;50.190;19.178;2023-02-28T09:04:56;21.60;;;11.40;;
41101;SDS011;26845;50.190;19.178;2023-02-28T09:07:23;23.40;;;11.80;;
41101;SDS011;26845;50.190;19.178;2023-02-28T09:09:51;19.90;;;10.80;;
41101;SDS011;26845;50.190;19.178;2023-02-28T09:12:21;15.60;;;8.90;;
41101;SDS011;26845;50.190;19.178;2023-02-28T09:14:51;17.40;;;9.20;;
41101;SDS011;26845;50.190;19.178;2023-02-28T09:17:17;16.80;;;9.90;;
41101;SDS011;26845;50.190;19.178;2023-02-28T09:19:43;19.00;;;9.80;;
41101;SDS011;26845;50.190;19.178;2023-02-28T09:22:09;18.70;;;10.70;;
41101;SDS011;26845;50.190;19.178;2023-02-28T09:24:36;14.50;;;8.40;;
41101;SDS011;26845;50.190;19.178;2023-02-28T09:27:04;12.50;;;7.40;;
41101;SDS011;26845;50.190;19.178;2023-02-28T09:29:33;12.30;;;7.60;;
41101;SDS011;26845;50.190;19.178;2023-02-28T09:31:59;14.20;;;8.60;;
41101;SDS011;26845;50.190;19.178;2023-02-28T09:34:26;14.70;;;7.70;;
41101;SDS011;26845;50.190;19.178;2023-02-28T09:36:52;13.40;;;7.60;;
41101;SDS011;26845;50.190;19.178;2023-02-28T09:39:21;9.90;;;6.50;;
41101;SDS011;26845;50.190;19.178;2023-02-28T09:41:48;14.90;;;8.50;;
41101;SDS011;26845;50.190;19.178;2023-02-28T09:44:20;12.70;;;8.40;;
41101;SDS011;26845;50.190;19.178;2023-02-28T09:46:56;13.80;;;7.30;;
41101;SDS011;26845;50.190;19.178;2023-02-28T09:49:25;11.80;;;8.40;;
41101;SDS011;26845;50.190;19.178;2023-02-28T09:52:07;11.90;;;7.30;;
41101;SDS011;26845;50.190;19.178;2023-02-28T09:54:36;14.30;;;8.20;;
41101;SDS011;26845;50.190;19.178;2023-02-28T09:57:10;12.80;;;8.70;;
41101;SDS011;26845;50.190;19.178;2023-02-28T09:59:49;12.10;;;8.30;;
41101;SDS011;26845;50.190;19.178;2023-02-28T10:04:57;21.30;;;9.90;;
41101;SDS011;26845;50.190;19.178;2023-02-28T10:10:21;13.60;;;8.80;;
41101;SDS011;26845;50.190;19.178;2023-02-28T10:12:56;15.20;;;9.80;;
41101;SDS011;26845;50.190;19.178;2023-02-28T10:15:27;16.10;;;9.20;;
41101;SDS011;26845;50.190;19.178;2023-02-28T10:18:03;15.10;;;8.80;;
41101;SDS011;26845;50.190;19.178;2023-02-28T10:20:35;14.60;;;8.70;;
41101;SDS011;26845;50.190;19.178;2023-02-28T10:23:20;16.40;;;8.90;;
41101;SDS011;26845;50.190;19.178;2023-02-28T10:26:13;20.30;;;9.50;;
41101;SDS011;26845;50.190;19.178;2023-02-28T10:28:57;15.50;;;8.90;;
41101;SDS011;26845;50.190;19.178;2023-02-28T10:31:23;16.80;;;10.10;;
41101;SDS011;26845;50.190;19.178;2023-02-28T10:33:49;15.10;;;9.10;;
41101;SDS011;26845;50.190;19.178;2023-02-28T10:36:16;14.10;;;9.30;;
41101;SDS011;26845;50.190;19.178;2023-02-28T10:38:44;15.60;;;9.10;;
41101;SDS011;26845;50.190;19.178;2023-02-28T10:41:11;15.60;;;9.40;;
41101;SDS011;26845;50.190;19.178;2023-02-28T10:43:40;14.90;;;9.70;;
41101;SDS011;26845;50.190;19.178;2023-02-28T10:51:11;17.80;;;9.90;;
41101;SDS011;26845;50.190;19.178;2023-02-28T10:53:40;14.50;;;9.80;;
41101;SDS011;26845;50.190;19.178;2023-02-28T10:56:16;17.90;;;9.80;;
41101;SDS011;26845;50.190;19.178;2023-02-28T10:58:48;17.70;;;10.60;;
41101;SDS011;26845;50.190;19.178;2023-02-28T11:03:48;16.70;;;9.10;;
41101;SDS011;26845;50.190;19.178;2023-02-28T11:06:18;18.30;;;10.40;;
41101;SDS011;26845;50.190;19.178;2023-02-28T11:08:54;16.00;;;9.50;;
41101;SDS011;26845;50.190;19.178;2023-02-28T11:11:23;13.60;;;9.50;;
41101;SDS011;26845;50.190;19.178;2023-02-28T11:13:53;14.90;;;9.70;;
41101;SDS011;26845;50.190;19.178;2023-02-28T11:18:56;14.90;;;9.20;;
41101;SDS011;26845;50.190;19.178;2023-02-28T11:21:27;13.60;;;9.50;;
41101;SDS011;26845;50.190;19.178;2023-02-28T11:24:04;16.30;;;8.40;;
41101;SDS011;26845;50.190;19.178;2023-02-28T11:26:50;13.10;;;8.30;;
41101;SDS011;26845;50.190;19.178;2023-02-28T11:29:26;12.60;;;8.40;;
41101;SDS011;26845;50.190;19.178;2023-02-28T11:34:32;12.60;;;8.50;;
41101;SDS011;26845;50.190;19.178;2023-02-28T11:36:59;13.70;;;8.80;;
41101;SDS011;26845;50.190;19.178;2023-02-28T11:39:27;12.40;;;8.50;;
41101;SDS011;26845;50.190;19.178;2023-02-28T12:03:45;13.30;;;9.00;;
41101;SDS011;26845;50.190;19.178;2023-02-28T12:12:16;12.60;;;8.10;;
41101;SDS011;26845;50.190;19.178;2023-02-28T12:20:43;12.80;;;7.80;;
41101;SDS011;26845;50.190;19.178;2023-02-28T12:28:49;14.80;;;8.30;;
41101;SDS011;26845;50.190;19.178;2023-02-28T12:31:20;14.10;;;8.40;;
41101;SDS011;26845;50.190;19.178;2023-02-28T12:33:51;12.40;;;8.30;;
41101;SDS011;26845;50.190;19.178;2023-02-28T12:36:24;13.60;;;8.10;;
41101;SDS011;26845;50.190;19.178;2023-02-28T12:39:08;13.90;;;7.90;;
41101;SDS011;26845;50.190;19.178;2023-02-28T12:41:44;16.10;;;8.90;;
41101;SDS011;26845;50.190;19.178;2023-02-28T12:44:15;12.00;;;7.30;;
41101;SDS011;26845;50.190;19.178;2023-02-28T12:46:47;12.10;;;7.40;;
41101;SDS011;26845;50.190;19.178;2023-02-28T12:49:17;12.80;;;7.80;;
41101;SDS011;26845;50.190;19.178;2023-02-28T12:52:05;12.10;;;7.90;;
41101;SDS011;26845;50.190;19.178;2023-02-28T12:54:52;14.40;;;7.70;;
41101;SDS011;26845;50.190;19.178;2023-02-28T12:57:36;12.50;;;7.60;;
41101;SDS011;26845;50.190;19.178;2023-02-28T13:00:16;10.70;;;8.00;;
41101;SDS011;26845;50.190;19.178;2023-02-28T13:06:16;15.70;;;8.50;;
41101;SDS011;26845;50.190;19.178;2023-02-28T13:09:04;10.90;;;7.80;;
41101;SDS011;26845;50.190;19.178;2023-02-28T13:16:54;10.20;;;7.10;;
41101;SDS011;26845;50.190;19.178;2023-02-28T13:19:20;9.90;;;6.90;;
41101;SDS011;26845;50.190;19.178;2023-02-28T13:21:48;11.90;;;7.30;;
41101;SDS011;26845;50.190;19.178;2023-02-28T13:39:48;12.10;;;6.80;;
41101;SDS011;26845;50.190;19.178;2023-02-28T13:47:51;10.50;;;6.60;;
41101;SDS011;26845;50.190;19.178;2023-02-28T13:50:23;13.20;;;7.00;;
41101;SDS011;26845;50.190;19.178;2023-02-28T13:55:24;12.80;;;7.50;;
41101;SDS011;26845;50.190;19.178;2023-02-28T13:58:12;13.90;;;8.90;;
41101;SDS011;26845;50.190;19.178;2023-02-28T14:03:55;11.50;;;7.80;;
41101;SDS011;26845;50.190;19.178;2023-02-28T14:06:49;10.20;;;6.00;;
41101;SDS011;26845;50.190;19.178;2023-02-28T14:09:32;11.30;;;7.20;;
41101;SDS011;26845;50.190;19.178;2023-02-28T14:20:47;14.50;;;8.00;;
41101;SDS011;26845;50.190;19.178;2023-02-28T14:29:17;16.90;;;9.70;;
41101;SDS011;26845;50.190;19.178;2023-02-28T14:31:54;15.20;;;9.20;;
41101;SDS011;26845;50.190;19.178;2023-02-28T14:37:13;15.60;;;9.60;;
41101;SDS011;26845;50.190;19.178;2023-02-28T14:39:42;13.40;;;9.10;;
41101;SDS011;26845;50.190;19.178;2023-02-28T14:44:56;10.60;;;7.10;;
41101;SDS011;26845;50.190;19.178;2023-02-28T14:47:22;11.60;;;6.40;;
41101;SDS011;26845;50.190;19.178;2023-02-28T14:49:50;13.70;;;8.80;;
41101;SDS011;26845;50.190;19.178;2023-02-28T14:54:54;23.70;;;8.90;;
41101;SDS011;26845;50.190;19.178;2023-02-28T14:57:30;15.30;;;9.00;;
41101;SDS011;26845;50.190;19.178;2023-02-28T15:00:06;16.50;;;9.30;;
41101;SDS011;26845;50.190;19.178;2023-02-28T15:02:36;17.00;;;10.40;;
41101;SDS011;26845;50.190;19.178;2023-02-28T15:07:37;10.80;;;6.90;;
41101;SDS011;26845;50.190;19.178;2023-02-28T15:13:07;10.60;;;6.50;;
41101;SDS011;26845;50.190;19.178;2023-02-28T15:15:48;11.20;;;6.40;;
41101;SDS011;26845;50.190;19.178;2023-02-28T15:19:00;9.00;;;6.00;;
41101;SDS011;26845;50.190;19.178;2023-02-28T15:21:05;11.40;;;6.60;;
41101;SDS011;26845;50.190;19.178;2023-02-28T15:23:35;12.20;;;6.80;;
41101;SDS011;26845;50.190;19.178;2023-02-28T15:26:02;10.10;;;6.40;;
41101;SDS011;26845;50.190;19.178;2023-02-28T15:28:28;10.40;;;6.80;;
41101;SDS011;26845;50.190;19.178;2023-02-28T15:31:03;10.40;;;6.80;;
41101;SDS011;26845;50.190;19.178;2023-02-28T15:33:55;11.20;;;6.80;;
41101;SDS011;26845;50.190;19.178;2023-02-28T15:36:26;27.80;;;12.10;;
41101;SDS011;26845;50.190;19.178;2023-02-28T15:38:55;19.40;;;8.90;;
41101;SDS011;26845;50.190;19.178;2023-02-28T15:41:23;15.00;;;8.50;;
41101;SDS011;26845;50.190;19.178;2023-02-28T15:46:57;11.70;;;7.30;;
41101;SDS011;26845;50.190;19.178;2023-02-28T15:49:27;18.80;;;9.90;;
41101;SDS011;26845;50.190;19.178;2023-02-28T15:51:55;17.70;;;9.20;;
41101;SDS011;26845;50.190;19.178;2023-02-28T15:54:27;15.40;;;8.80;;
41101;SDS011;26845;50.190;19.178;2023-02-28T15:57:01;26.60;;;12.90;;
41101;SDS011;26845;50.190;19.178;2023-02-28T15:59:33;18.90;;;10.60;;
41101;SDS011;26845;50.190;19.178;2023-02-28T16:02:02;31.80;;;15.40;;
41101;SDS011;26845;50.190;19.178;2023-02-28T16:04:36;74.50;;;34.50;;
41101;SDS011;26845;50.190;19.178;2023-02-28T16:07:04;36.50;;;21.50;;
41101;SDS011;26845;50.190;19.178;2023-02-28T16:09:30;28.70;;;19.70;;
41101;SDS011;26845;50.190;19.178;2023-02-28T16:11:59;37.10;;;15.20;;
41101;SDS011;26845;50.190;19.178;2023-02-28T16:14:27;25.60;;;11.00;;
41101;SDS011;26845;50.190;19.178;2023-02-28T16:16:56;27.70;;;12.30;;
41101;SDS011;26845;50.190;19.178;2023-02-28T16:19:27;17.30;;;8.00;;
41101;SDS011;26845;50.190;19.178;2023-02-28T16:21:53;16.60;;;8.10;;
41101;SDS011;26845;50.190;19.178;2023-02-28T16:24:20;13.20;;;7.40;;
41101;SDS011;26845;50.190;19.178;2023-02-28T16:26:47;14.50;;;7.90;;
41101;SDS011;26845;50.190;19.178;2023-02-28T16:29:27;15.10;;;7.60;;
41101;SDS011;26845;50.190;19.178;2023-02-28T16:31:55;14.50;;;7.60;;
41101;SDS011;26845;50.190;19.178;2023-02-28T16:34:21;12.90;;;7.30;;
41101;SDS011;26845;50.190;19.178;2023-02-28T16:36:47;12.80;;;8.00;;
41101;SDS011;26845;50.190;19.178;2023-02-28T16:39:14;13.40;;;7.90;;
41101;SDS011;26845;50.190;19.178;2023-02-28T16:41:44;12.90;;;6.90;;
41101;SDS011;26845;50.190;19.178;2023-02-28T16:44:13;12.50;;;7.40;;
41101;SDS011;26845;50.190;19.178;2023-02-28T16:46:46;11.10;;;7.70;;
41101;SDS011;26845;50.190;19.178;2023-02-28T16:49:12;13.30;;;7.60;;
41101;SDS011;26845;50.190;19.178;2023-02-28T16:51:38;14.20;;;7.90;;
41101;SDS011;26845;50.190;19.178;2023-02-28T16:54:04;12.20;;;6.90;;
41101;SDS011;26845;50.190;19.178;2023-02-28T16:56:31;12.70;;;7.40;;
41101;SDS011;26845;50.190;19.178;2023-02-28T16:58:59;14.50;;;7.70;;